sensor_id;sensor_type;location;lat;lon;timestamp;P1;durP1;ratioP1;P2;durP2;ratioP2
46230;SDS011;31949;51.404;-0.038;2024-01-30T00:00:34;22.08;;;9.38;;
46230;SDS011;31949;51.404;-0.038;2024-01-30T00:03:01;15.68;;;7.45;;
46230;SDS011;31949;51.404;-0.038;2024-01-30T00:05:28;16.13;;;8.32;;
46230;SDS011;31949;51.404;-0.038;2024-01-30T00:07:55;14.18;;;7.85;;
46230;SDS011;31949;51.404;-0.038;2024-01-30T00:10:23;20.15;;;9.20;;
46230;SDS011;31949;51.404;-0.038;2024-01-30T00:12:50;16.98;;;9.50;;
46230;SDS011;31949;51.404;-0.038;2024-01-30T00:15:18;24.83;;;9.75;;
46230;SDS011;31949;51.404;-0.038;2024-01-30T00:17:45;18.58;;;8.30;;
46230;SDS011;31949;51.404;-0.038;2024-01-30T00:20:12;15.95;;;7.07;;
46230;SDS011;31949;51.404;-0.038;2024-01-30T00:22:39;17.40;;;8.80;;
46230;SDS011;31949;51.404;-0.038;2024-01-30T00:25:07;17.60;;;8.45;;
46230;SDS011;31949;51.404;-0.038;2024-01-30T00:27:34;18.38;;;7.82;;
46230;SDS011;31949;51.404;-0.038;2024-01-30T00:30:02;15.57;;;7.45;;
46230;SDS011;31949;51.404;-0.038;2024-01-30T00:32:30;19.10;;;9.25;;
46230;SDS011;31949;51.404;-0.038;2024-01-30T00:34:57;21.05;;;7.97;;
46230;SDS011;31949;51.404;-0.038;2024-01-30T00:37:24;14.05;;;6.70;;
46230;SDS011;31949;51.404;-0.038;2024-01-30T00:39:51;14.88;;;8.05;;
46230;SDS011;31949;51.404;-0.038;2024-01-30T00:42:19;15.90;;;5.68;;
46230;SDS011;31949;51.404;-0.038;2024-01-30T00:44:46;15.00;;;7.82;;
46230;SDS011;31949;51.404;-0.038;2024-01-30T00:47:13;10.80;;;6.10;;
46230;SDS011;31949;51.404;-0.038;2024-01-30T00:49:40;16.67;;;8.25;;
46230;SDS011;31949;51.404;-0.038;2024-01-30T00:52:07;13.13;;;5.72;;
46230;SDS011;31949;51.404;-0.038;2024-01-30T00:54:35;13.00;;;6.63;;
46230;SDS011;31949;51.404;-0.038;2024-01-30T00:57:02;12.27;;;6.43;;
46230;SDS011;31949;51.404;-0.038;2024-01-30T00:59:30;9.40;;;5.28;;
46230;SDS011;31949;51.404;-0.038;2024-01-30T01:01:57;14.15;;;5.78;;
46230;SDS011;31949;51.404;-0.038;2024-01-30T01:04:25;13.10;;;5.10;;
46230;SDS011;31949;51.404;-0.038;2024-01-30T01:06:53;10.90;;;5.45;;
46230;SDS011;31949;51.404;-0.038;2024-01-30T01:09:21;10.85;;;4.35;;
46230;SDS011;31949;51.404;-0.038;2024-01-30T01:11:48;7.07;;;4.35;;
46230;SDS011;31949;51.404;-0.038;2024-01-30T01:14:15;7.63;;;3.38;;
46230;SDS011;31949;51.404;-0.038;2024-01-30T01:16:43;9.82;;;3.55;;
46230;SDS011;31949;51.404;-0.038;2024-01-30T01:19:10;8.88;;;3.67;;
46230;SDS011;31949;51.404;-0.038;2024-01-30T01:21:37;6.32;;;2.70;;
46230;SDS011;31949;51.404;-0.038;2024-01-30T01:24:04;10.63;;;3.67;;
46230;SDS011;31949;51.404;-0.038;2024-01-30T01:26:32;6.60;;;3.20;;
46230;SDS011;31949;51.404;-0.038;2024-01-30T01:28:59;9.25;;;2.80;;
46230;SDS011;31949;51.404;-0.038;2024-01-30T01:31:26;10.32;;;3.28;;
46230;SDS011;31949;51.404;-0.038;2024-01-30T01:33:56;7.93;;;3.10;;
46230;SDS011;31949;51.404;-0.038;2024-01-30T01:36:24;9.82;;;2.60;;
46230;SDS011;31949;51.404;-0.038;2024-01-30T01:38:51;7.43;;;2.70;;
46230;SDS011;31949;51.404;-0.038;2024-01-30T01:41:18;8.07;;;2.45;;
46230;SDS011;31949;51.404;-0.038;2024-01-30T01:43:45;6.35;;;2.15;;
46230;SDS011;31949;51.404;-0.038;2024-01-30T01:46:13;10.07;;;2.17;;
46230;SDS011;31949;51.404;-0.038;2024-01-30T01:48:40;3.53;;;1.65;;
46230;SDS011;31949;51.404;-0.038;2024-01-30T01:51:10;3.47;;;1.90;;
46230;SDS011;31949;51.404;-0.038;2024-01-30T01:53:52;5.75;;;1.85;;
46230;SDS011;31949;51.404;-0.038;2024-01-30T01:56:21;6.63;;;2.22;;
46230;SDS011;31949;51.404;-0.038;2024-01-30T01:58:50;4.57;;;1.85;;
46230;SDS011;31949;51.404;-0.038;2024-01-30T02:01:20;8.00;;;2.30;;
46230;SDS011;31949;51.404;-0.038;2024-01-30T02:03:48;7.07;;;2.33;;
46230;SDS011;31949;51.404;-0.038;2024-01-30T02:06:15;6.72;;;2.25;;
46230;SDS011;31949;51.404;-0.038;2024-01-30T02:08:42;4.55;;;1.80;;
46230;SDS011;31949;51.404;-0.038;2024-01-30T02:11:10;6.80;;;1.83;;
46230;SDS011;31949;51.404;-0.038;2024-01-30T02:13:37;13.05;;;2.17;;
46230;SDS011;31949;51.404;-0.038;2024-01-30T02:16:05;8.88;;;2.40;;
46230;SDS011;31949;51.404;-0.038;2024-01-30T02:18:32;7.22;;;1.95;;
46230;SDS011;31949;51.404;-0.038;2024-01-30T02:21:16;9.50;;;2.08;;
46230;SDS011;31949;51.404;-0.038;2024-01-30T02:23:45;9.77;;;1.42;;
46230;SDS011;31949;51.404;-0.038;2024-01-30T02:26:13;6.38;;;2.05;;
46230;SDS011;31949;51.404;-0.038;2024-01-30T02:28:41;7.38;;;2.28;;
46230;SDS011;31949;51.404;-0.038;2024-01-30T02:31:08;11.68;;;2.72;;
46230;SDS011;31949;51.404;-0.038;2024-01-30T02:33:35;7.38;;;2.15;;
46230;SDS011;31949;51.404;-0.038;2024-01-30T02:36:02;5.30;;;1.77;;
46230;SDS011;31949;51.404;-0.038;2024-01-30T02:38:29;6.32;;;1.58;;
46230;SDS011;31949;51.404;-0.038;2024-01-30T02:40:57;3.60;;;1.13;;
46230;SDS011;31949;51.404;-0.038;2024-01-30T02:43:24;4.40;;;1.42;;
46230;SDS011;31949;51.404;-0.038;2024-01-30T02:45:52;7.57;;;1.38;;
46230;SDS011;31949;51.404;-0.038;2024-01-30T02:48:19;2.75;;;1.02;;
46230;SDS011;31949;51.404;-0.038;2024-01-30T02:50:46;4.97;;;0.90;;
46230;SDS011;31949;51.404;-0.038;2024-01-30T02:53:13;3.00;;;0.98;;
46230;SDS011;31949;51.404;-0.038;2024-01-30T02:55:41;4.57;;;0.85;;
46230;SDS011;31949;51.404;-0.038;2024-01-30T02:58:08;10.93;;;1.35;;
46230;SDS011;31949;51.404;-0.038;2024-01-30T03:00:35;2.83;;;0.70;;
46230;SDS011;31949;51.404;-0.038;2024-01-30T03:03:02;3.65;;;1.05;;
46230;SDS011;31949;51.404;-0.038;2024-01-30T03:05:30;3.28;;;1.10;;
46230;SDS011;31949;51.404;-0.038;2024-01-30T03:07:57;6.95;;;1.13;;
46230;SDS011;31949;51.404;-0.038;2024-01-30T03:10:24;2.25;;;0.82;;
46230;SDS011;31949;51.404;-0.038;2024-01-30T03:12:52;2.38;;;0.82;;
46230;SDS011;31949;51.404;-0.038;2024-01-30T03:15:19;2.70;;;0.90;;
46230;SDS011;31949;51.404;-0.038;2024-01-30T03:17:47;4.18;;;1.08;;
46230;SDS011;31949;51.404;-0.038;2024-01-30T03:20:14;2.25;;;0.98;;
46230;SDS011;31949;51.404;-0.038;2024-01-30T03:22:42;4.40;;;1.20;;
46230;SDS011;31949;51.404;-0.038;2024-01-30T03:25:09;4.05;;;1.10;;
46230;SDS011;31949;51.404;-0.038;2024-01-30T03:27:36;4.25;;;0.88;;
46230;SDS011;31949;51.404;-0.038;2024-01-30T03:30:03;4.90;;;0.70;;
46230;SDS011;31949;51.404;-0.038;2024-01-30T03:32:31;1.77;;;0.70;;
46230;SDS011;31949;51.404;-0.038;2024-01-30T03:34:58;1.95;;;0.63;;
46230;SDS011;31949;51.404;-0.038;2024-01-30T03:37:26;2.28;;;0.50;;
46230;SDS011;31949;51.404;-0.038;2024-01-30T03:39:53;5.13;;;0.82;;
46230;SDS011;31949;51.404;-0.038;2024-01-30T03:42:21;7.05;;;0.68;;
46230;SDS011;31949;51.404;-0.038;2024-01-30T03:44:48;4.68;;;1.10;;
46230;SDS011;31949;51.404;-0.038;2024-01-30T03:47:19;6.65;;;0.80;;
46230;SDS011;31949;51.404;-0.038;2024-01-30T03:49:47;2.42;;;0.60;;
46230;SDS011;31949;51.404;-0.038;2024-01-30T03:52:14;3.20;;;0.85;;
46230;SDS011;31949;51.404;-0.038;2024-01-30T03:54:42;4.15;;;1.00;;
46230;SDS011;31949;51.404;-0.038;2024-01-30T03:57:09;1.13;;;0.50;;
46230;SDS011;31949;51.404;-0.038;2024-01-30T03:59:36;6.63;;;1.42;;
46230;SDS011;31949;51.404;-0.038;2024-01-30T04:02:03;5.63;;;0.65;;
46230;SDS011;31949;51.404;-0.038;2024-01-30T04:04:31;1.65;;;0.82;;
46230;SDS011;31949;51.404;-0.038;2024-01-30T04:06:58;0.73;;;0.30;;
46230;SDS011;31949;51.404;-0.038;2024-01-30T04:09:25;3.00;;;0.50;;
46230;SDS011;31949;51.404;-0.038;2024-01-30T04:11:55;0.95;;;0.30;;
46230;SDS011;31949;51.404;-0.038;2024-01-30T04:14:22;1.95;;;0.50;;
46230;SDS011;31949;51.404;-0.038;2024-01-30T04:16:49;2.88;;;0.40;;
46230;SDS011;31949;51.404;-0.038;2024-01-30T04:19:16;3.38;;;0.50;;
46230;SDS011;31949;51.404;-0.038;2024-01-30T04:21:43;1.35;;;0.50;;
46230;SDS011;31949;51.404;-0.038;2024-01-30T04:24:11;1.90;;;0.43;;
46230;SDS011;31949;51.404;-0.038;2024-01-30T04:26:38;2.50;;;0.93;;
46230;SDS011;31949;51.404;-0.038;2024-01-30T04:29:05;3.75;;;0.82;;
46230;SDS011;31949;51.404;-0.038;2024-01-30T04:31:32;0.90;;;0.55;;
46230;SDS011;31949;51.404;-0.038;2024-01-30T04:34:00;2.35;;;0.70;;
46230;SDS011;31949;51.404;-0.038;2024-01-30T04:36:27;4.45;;;1.08;;
46230;SDS011;31949;51.404;-0.038;2024-01-30T04:38:54;2.03;;;1.05;;
46230;SDS011;31949;51.404;-0.038;2024-01-30T04:41:22;3.88;;;0.80;;
46230;SDS011;31949;51.404;-0.038;2024-01-30T04:43:49;1.30;;;0.43;;
46230;SDS011;31949;51.404;-0.038;2024-01-30T04:46:16;3.67;;;0.80;;
46230;SDS011;31949;51.404;-0.038;2024-01-30T04:48:43;2.75;;;0.70;;
46230;SDS011;31949;51.404;-0.038;2024-01-30T04:51:10;0.82;;;0.80;;
46230;SDS011;31949;51.404;-0.038;2024-01-30T04:53:37;0.73;;;0.50;;
46230;SDS011;31949;51.404;-0.038;2024-01-30T04:56:06;2.45;;;0.85;;
46230;SDS011;31949;51.404;-0.038;2024-01-30T04:58:33;1.88;;;0.70;;
46230;SDS011;31949;51.404;-0.038;2024-01-30T05:01:00;1.48;;;0.95;;
46230;SDS011;31949;51.404;-0.038;2024-01-30T05:03:28;2.38;;;0.57;;
46230;SDS011;31949;51.404;-0.038;2024-01-30T05:05:59;3.47;;;1.38;;
46230;SDS011;31949;51.404;-0.038;2024-01-30T05:08:26;2.05;;;0.90;;
46230;SDS011;31949;51.404;-0.038;2024-01-30T05:10:53;0.90;;;0.68;;
46230;SDS011;31949;51.404;-0.038;2024-01-30T05:13:20;2.30;;;0.75;;
46230;SDS011;31949;51.404;-0.038;2024-01-30T05:15:48;5.78;;;1.10;;
46230;SDS011;31949;51.404;-0.038;2024-01-30T05:18:15;2.42;;;0.85;;
46230;SDS011;31949;51.404;-0.038;2024-01-30T05:20:42;2.75;;;1.80;;
46230;SDS011;31949;51.404;-0.038;2024-01-30T05:23:10;2.58;;;0.90;;
46230;SDS011;31949;51.404;-0.038;2024-01-30T05:25:37;1.73;;;0.70;;
46230;SDS011;31949;51.404;-0.038;2024-01-30T05:28:04;1.77;;;0.98;;
46230;SDS011;31949;51.404;-0.038;2024-01-30T05:30:32;2.83;;;0.93;;
46230;SDS011;31949;51.404;-0.038;2024-01-30T05:32:59;3.67;;;1.40;;
46230;SDS011;31949;51.404;-0.038;2024-01-30T05:35:26;8.85;;;1.13;;
46230;SDS011;31949;51.404;-0.038;2024-01-30T05:37:54;1.30;;;0.80;;
46230;SDS011;31949;51.404;-0.038;2024-01-30T05:40:21;0.70;;;0.70;;
46230;SDS011;31949;51.404;-0.038;2024-01-30T05:42:49;0.85;;;0.82;;
46230;SDS011;31949;51.404;-0.038;2024-01-30T05:45:16;3.15;;;0.60;;
46230;SDS011;31949;51.404;-0.038;2024-01-30T05:47:43;1.40;;;0.57;;
46230;SDS011;31949;51.404;-0.038;2024-01-30T05:50:11;2.65;;;0.70;;
46230;SDS011;31949;51.404;-0.038;2024-01-30T05:52:38;1.40;;;0.60;;
46230;SDS011;31949;51.404;-0.038;2024-01-30T05:55:05;2.08;;;0.57;;
46230;SDS011;31949;51.404;-0.038;2024-01-30T05:57:33;3.60;;;0.55;;
46230;SDS011;31949;51.404;-0.038;2024-01-30T06:00:00;0.75;;;0.50;;
46230;SDS011;31949;51.404;-0.038;2024-01-30T06:02:30;1.92;;;1.48;;
46230;SDS011;31949;51.404;-0.038;2024-01-30T06:04:58;1.42;;;0.40;;
46230;SDS011;31949;51.404;-0.038;2024-01-30T06:07:25;1.02;;;0.40;;
46230;SDS011;31949;51.404;-0.038;2024-01-30T06:09:52;0.30;;;0.30;;
46230;SDS011;31949;51.404;-0.038;2024-01-30T06:12:20;2.58;;;0.63;;
46230;SDS011;31949;51.404;-0.038;2024-01-30T06:14:47;1.27;;;0.98;;
46230;SDS011;31949;51.404;-0.038;2024-01-30T06:17:14;1.95;;;0.80;;
46230;SDS011;31949;51.404;-0.038;2024-01-30T06:19:42;3.55;;;1.20;;
46230;SDS011;31949;51.404;-0.038;2024-01-30T06:22:09;3.35;;;0.90;;
46230;SDS011;31949;51.404;-0.038;2024-01-30T06:24:36;1.27;;;0.77;;
46230;SDS011;31949;51.404;-0.038;2024-01-30T06:27:03;1.73;;;0.65;;
46230;SDS011;31949;51.404;-0.038;2024-01-30T06:29:31;1.77;;;0.80;;
46230;SDS011;31949;51.404;-0.038;2024-01-30T06:31:58;5.20;;;1.45;;
46230;SDS011;31949;51.404;-0.038;2024-01-30T06:34:25;4.85;;;1.70;;
46230;SDS011;31949;51.404;-0.038;2024-01-30T06:36:53;1.80;;;1.40;;
46230;SDS011;31949;51.404;-0.038;2024-01-30T06:39:20;2.80;;;1.88;;
46230;SDS011;31949;51.404;-0.038;2024-01-30T06:41:48;4.70;;;2.42;;
46230;SDS011;31949;51.404;-0.038;2024-01-30T06:44:16;6.40;;;2.33;;
46230;SDS011;31949;51.404;-0.038;2024-01-30T06:46:43;3.30;;;2.05;;
46230;SDS011;31949;51.404;-0.038;2024-01-30T06:49:10;4.25;;;2.10;;
46230;SDS011;31949;51.404;-0.038;2024-01-30T06:51:37;3.95;;;2.50;;
46230;SDS011;31949;51.404;-0.038;2024-01-30T06:54:04;3.58;;;2.30;;
46230;SDS011;31949;51.404;-0.038;2024-01-30T06:56:31;2.42;;;1.92;;
46230;SDS011;31949;51.404;-0.038;2024-01-30T06:58:59;2.38;;;1.95;;
46230;SDS011;31949;51.404;-0.038;2024-01-30T07:01:29;2.92;;;2.25;;
46230;SDS011;31949;51.404;-0.038;2024-01-30T07:03:57;4.50;;;2.65;;
46230;SDS011;31949;51.404;-0.038;2024-01-30T07:06:24;3.30;;;2.13;;
46230;SDS011;31949;51.404;-0.038;2024-01-30T07:08:52;4.28;;;2.65;;
46230;SDS011;31949;51.404;-0.038;2024-01-30T07:11:19;5.80;;;2.45;;
46230;SDS011;31949;51.404;-0.038;2024-01-30T07:13:51;6.45;;;2.42;;
46230;SDS011;31949;51.404;-0.038;2024-01-30T07:16:18;6.22;;;2.50;;
46230;SDS011;31949;51.404;-0.038;2024-01-30T07:18:46;4.78;;;2.72;;
46230;SDS011;31949;51.404;-0.038;2024-01-30T07:21:16;7.50;;;2.67;;
46230;SDS011;31949;51.404;-0.038;2024-01-30T07:23:43;7.15;;;2.45;;
46230;SDS011;31949;51.404;-0.038;2024-01-30T07:26:10;2.75;;;2.53;;
46230;SDS011;31949;51.404;-0.038;2024-01-30T07:28:38;3.30;;;2.90;;
46230;SDS011;31949;51.404;-0.038;2024-01-30T07:31:05;3.45;;;2.28;;
46230;SDS011;31949;51.404;-0.038;2024-01-30T07:33:33;4.10;;;2.90;;
46230;SDS011;31949;51.404;-0.038;2024-01-30T07:36:00;4.38;;;2.65;;
46230;SDS011;31949;51.404;-0.038;2024-01-30T07:38:27;9.05;;;3.45;;
46230;SDS011;31949;51.404;-0.038;2024-01-30T07:40:58;2.95;;;2.65;;
46230;SDS011;31949;51.404;-0.038;2024-01-30T07:43:25;3.03;;;2.50;;
46230;SDS011;31949;51.404;-0.038;2024-01-30T07:45:52;3.30;;;2.17;;
46230;SDS011;31949;51.404;-0.038;2024-01-30T07:48:19;4.75;;;1.98;;
46230;SDS011;31949;51.404;-0.038;2024-01-30T07:50:48;5.70;;;2.67;;
46230;SDS011;31949;51.404;-0.038;2024-01-30T07:53:15;4.20;;;2.38;;
46230;SDS011;31949;51.404;-0.038;2024-01-30T07:55:42;3.55;;;2.28;;
46230;SDS011;31949;51.404;-0.038;2024-01-30T07:58:13;3.55;;;2.50;;
46230;SDS011;31949;51.404;-0.038;2024-01-30T08:00:41;2.58;;;1.88;;
46230;SDS011;31949;51.404;-0.038;2024-01-30T08:03:08;3.58;;;2.28;;
46230;SDS011;31949;51.404;-0.038;2024-01-30T08:05:35;2.47;;;2.03;;
46230;SDS011;31949;51.404;-0.038;2024-01-30T08:08:02;2.22;;;1.85;;
46230;SDS011;31949;51.404;-0.038;2024-01-30T08:10:30;4.28;;;2.38;;
46230;SDS011;31949;51.404;-0.038;2024-01-30T08:12:57;2.65;;;1.55;;
46230;SDS011;31949;51.404;-0.038;2024-01-30T08:15:25;2.63;;;2.05;;
46230;SDS011;31949;51.404;-0.038;2024-01-30T08:17:53;1.58;;;1.38;;
46230;SDS011;31949;51.404;-0.038;2024-01-30T08:20:24;1.80;;;1.52;;
46230;SDS011;31949;51.404;-0.038;2024-01-30T08:22:52;2.00;;;1.63;;
46230;SDS011;31949;51.404;-0.038;2024-01-30T08:25:19;3.00;;;1.40;;
46230;SDS011;31949;51.404;-0.038;2024-01-30T08:27:47;1.23;;;1.10;;
46230;SDS011;31949;51.404;-0.038;2024-01-30T08:30:15;1.23;;;0.93;;
46230;SDS011;31949;51.404;-0.038;2024-01-30T08:32:42;1.58;;;0.80;;
46230;SDS011;31949;51.404;-0.038;2024-01-30T08:35:10;2.15;;;1.02;;
46230;SDS011;31949;51.404;-0.038;2024-01-30T08:37:40;2.70;;;0.80;;
46230;SDS011;31949;51.404;-0.038;2024-01-30T08:40:08;0.82;;;0.80;;
46230;SDS011;31949;51.404;-0.038;2024-01-30T08:42:36;1.08;;;0.73;;
46230;SDS011;31949;51.404;-0.038;2024-01-30T08:45:04;2.38;;;0.60;;
46230;SDS011;31949;51.404;-0.038;2024-01-30T08:47:31;1.58;;;0.40;;
46230;SDS011;31949;51.404;-0.038;2024-01-30T08:50:00;1.13;;;0.70;;
46230;SDS011;31949;51.404;-0.038;2024-01-30T08:52:28;1.27;;;0.50;;
46230;SDS011;31949;51.404;-0.038;2024-01-30T08:54:55;0.60;;;0.40;;
46230;SDS011;31949;51.404;-0.038;2024-01-30T08:57:22;1.38;;;0.60;;
46230;SDS011;31949;51.404;-0.038;2024-01-30T08:59:50;1.27;;;0.52;;
46230;SDS011;31949;51.404;-0.038;2024-01-30T09:02:17;0.45;;;0.32;;
46230;SDS011;31949;51.404;-0.038;2024-01-30T09:04:45;1.42;;;0.35;;
46230;SDS011;31949;51.404;-0.038;2024-01-30T09:07:12;0.68;;;0.50;;
46230;SDS011;31949;51.404;-0.038;2024-01-30T09:09:40;0.35;;;0.30;;
46230;SDS011;31949;51.404;-0.038;2024-01-30T09:12:08;1.10;;;0.63;;
46230;SDS011;31949;51.404;-0.038;2024-01-30T09:14:38;0.85;;;0.20;;
46230;SDS011;31949;51.404;-0.038;2024-01-30T09:17:07;0.80;;;0.30;;
46230;SDS011;31949;51.404;-0.038;2024-01-30T09:19:35;1.95;;;0.43;;
46230;SDS011;31949;51.404;-0.038;2024-01-30T09:22:03;0.82;;;0.30;;
46230;SDS011;31949;51.404;-0.038;2024-01-30T09:24:30;2.92;;;0.40;;
46230;SDS011;31949;51.404;-0.038;2024-01-30T09:26:57;0.70;;;0.20;;
46230;SDS011;31949;51.404;-0.038;2024-01-30T09:29:25;0.57;;;0.30;;
46230;SDS011;31949;51.404;-0.038;2024-01-30T09:31:52;2.08;;;0.38;;
46230;SDS011;31949;51.404;-0.038;2024-01-30T09:34:19;0.98;;;0.40;;
46230;SDS011;31949;51.404;-0.038;2024-01-30T09:36:48;0.65;;;0.47;;
46230;SDS011;31949;51.404;-0.038;2024-01-30T09:39:15;2.17;;;0.38;;
46230;SDS011;31949;51.404;-0.038;2024-01-30T09:41:49;0.50;;;0.47;;
46230;SDS011;31949;51.404;-0.038;2024-01-30T09:44:37;3.10;;;0.40;;
46230;SDS011;31949;51.404;-0.038;2024-01-30T09:47:08;0.63;;;0.30;;
46230;SDS011;31949;51.404;-0.038;2024-01-30T09:49:36;0.43;;;0.40;;
46230;SDS011;31949;51.404;-0.038;2024-01-30T09:52:05;0.38;;;0.30;;
46230;SDS011;31949;51.404;-0.038;2024-01-30T09:54:33;0.43;;;0.30;;
46230;SDS011;31949;51.404;-0.038;2024-01-30T09:57:03;1.20;;;0.82;;
46230;SDS011;31949;51.404;-0.038;2024-01-30T09:59:31;1.30;;;0.68;;
46230;SDS011;31949;51.404;-0.038;2024-01-30T10:01:59;0.98;;;0.45;;
46230;SDS011;31949;51.404;-0.038;2024-01-30T10:04:27;0.68;;;0.55;;
46230;SDS011;31949;51.404;-0.038;2024-01-30T10:06:54;1.73;;;0.68;;
46230;SDS011;31949;51.404;-0.038;2024-01-30T10:09:21;2.95;;;0.50;;
46230;SDS011;31949;51.404;-0.038;2024-01-30T10:11:49;3.30;;;0.52;;
46230;SDS011;31949;51.404;-0.038;2024-01-30T10:14:18;1.83;;;0.63;;
46230;SDS011;31949;51.404;-0.038;2024-01-30T10:16:46;1.23;;;0.70;;
46230;SDS011;31949;51.404;-0.038;2024-01-30T10:19:13;2.38;;;0.80;;
46230;SDS011;31949;51.404;-0.038;2024-01-30T10:21:41;1.25;;;0.82;;
46230;SDS011;31949;51.404;-0.038;2024-01-30T10:24:09;1.33;;;0.57;;
46230;SDS011;31949;51.404;-0.038;2024-01-30T10:26:39;0.80;;;0.52;;
46230;SDS011;31949;51.404;-0.038;2024-01-30T10:29:06;0.57;;;0.40;;
46230;SDS011;31949;51.404;-0.038;2024-01-30T10:31:34;2.10;;;0.60;;
46230;SDS011;31949;51.404;-0.038;2024-01-30T10:34:01;0.68;;;0.45;;
46230;SDS011;31949;51.404;-0.038;2024-01-30T10:36:43;1.10;;;0.40;;
46230;SDS011;31949;51.404;-0.038;2024-01-30T10:39:17;1.20;;;0.55;;
46230;SDS011;31949;51.404;-0.038;2024-01-30T10:41:44;4.68;;;3.85;;
46230;SDS011;31949;51.404;-0.038;2024-01-30T10:44:17;5.18;;;2.95;;
46230;SDS011;31949;51.404;-0.038;2024-01-30T10:46:48;2.10;;;1.53;;
46230;SDS011;31949;51.404;-0.038;2024-01-30T10:49:21;2.65;;;1.33;;
46230;SDS011;31949;51.404;-0.038;2024-01-30T10:51:49;11.65;;;10.90;;
46230;SDS011;31949;51.404;-0.038;2024-01-30T10:54:19;6.00;;;5.60;;
46230;SDS011;31949;51.404;-0.038;2024-01-30T10:56:47;1.70;;;1.60;;
46230;SDS011;31949;51.404;-0.038;2024-01-30T10:59:16;2.67;;;1.23;;
46230;SDS011;31949;51.404;-0.038;2024-01-30T11:01:44;3.55;;;1.17;;
46230;SDS011;31949;51.404;-0.038;2024-01-30T11:04:12;1.00;;;0.40;;
46230;SDS011;31949;51.404;-0.038;2024-01-30T11:06:43;0.85;;;0.60;;
46230;SDS011;31949;51.404;-0.038;2024-01-30T11:09:11;1.45;;;0.60;;
46230;SDS011;31949;51.404;-0.038;2024-01-30T11:11:56;1.52;;;0.50;;
46230;SDS011;31949;51.404;-0.038;2024-01-30T11:14:31;0.88;;;0.30;;
46230;SDS011;31949;51.404;-0.038;2024-01-30T11:16:58;2.13;;;0.43;;
46230;SDS011;31949;51.404;-0.038;2024-01-30T11:19:27;1.27;;;0.50;;
46230;SDS011;31949;51.404;-0.038;2024-01-30T11:21:57;0.65;;;0.47;;
46230;SDS011;31949;51.404;-0.038;2024-01-30T11:24:27;0.65;;;0.30;;
46230;SDS011;31949;51.404;-0.038;2024-01-30T11:27:01;0.93;;;0.60;;
46230;SDS011;31949;51.404;-0.038;2024-01-30T11:29:34;0.73;;;0.35;;
46230;SDS011;31949;51.404;-0.038;2024-01-30T11:32:02;1.05;;;0.90;;
46230;SDS011;31949;51.404;-0.038;2024-01-30T11:34:30;1.38;;;0.40;;
46230;SDS011;31949;51.404;-0.038;2024-01-30T11:36:59;1.55;;;0.40;;
46230;SDS011;31949;51.404;-0.038;2024-01-30T11:39:30;0.80;;;0.60;;
46230;SDS011;31949;51.404;-0.038;2024-01-30T11:41:58;0.82;;;0.45;;
46230;SDS011;31949;51.404;-0.038;2024-01-30T11:44:26;1.95;;;0.47;;
46230;SDS011;31949;51.404;-0.038;2024-01-30T11:46:53;1.85;;;0.57;;
46230;SDS011;31949;51.404;-0.038;2024-01-30T11:49:21;0.35;;;0.30;;
46230;SDS011;31949;51.404;-0.038;2024-01-30T11:51:50;0.88;;;0.80;;
46230;SDS011;31949;51.404;-0.038;2024-01-30T11:54:20;1.77;;;1.20;;
46230;SDS011;31949;51.404;-0.038;2024-01-30T11:56:47;0.85;;;0.30;;
46230;SDS011;31949;51.404;-0.038;2024-01-30T11:59:14;0.77;;;0.32;;
46230;SDS011;31949;51.404;-0.038;2024-01-30T12:01:41;11.50;;;8.27;;
46230;SDS011;31949;51.404;-0.038;2024-01-30T12:04:09;1.83;;;1.08;;
46230;SDS011;31949;51.404;-0.038;2024-01-30T12:06:38;0.90;;;0.63;;
46230;SDS011;31949;51.404;-0.038;2024-01-30T12:09:06;1.33;;;1.23;;
46230;SDS011;31949;51.404;-0.038;2024-01-30T12:11:45;0.57;;;0.50;;
46230;SDS011;31949;51.404;-0.038;2024-01-30T12:14:13;0.60;;;0.60;;
46230;SDS011;31949;51.404;-0.038;2024-01-30T12:16:41;0.77;;;0.43;;
46230;SDS011;31949;51.404;-0.038;2024-01-30T12:19:09;0.75;;;0.52;;
46230;SDS011;31949;51.404;-0.038;2024-01-30T12:21:38;1.63;;;0.35;;
46230;SDS011;31949;51.404;-0.038;2024-01-30T12:24:06;0.40;;;0.35;;
46230;SDS011;31949;51.404;-0.038;2024-01-30T12:26:34;0.43;;;0.40;;
46230;SDS011;31949;51.404;-0.038;2024-01-30T12:29:03;1.25;;;0.40;;
46230;SDS011;31949;51.404;-0.038;2024-01-30T12:31:31;0.88;;;0.40;;
46230;SDS011;31949;51.404;-0.038;2024-01-30T12:34:00;0.55;;;0.40;;
46230;SDS011;31949;51.404;-0.038;2024-01-30T12:36:28;1.75;;;0.40;;
46230;SDS011;31949;51.404;-0.038;2024-01-30T12:38:57;0.43;;;0.43;;
46230;SDS011;31949;51.404;-0.038;2024-01-30T12:41:25;0.70;;;0.60;;
46230;SDS011;31949;51.404;-0.038;2024-01-30T12:43:57;0.40;;;0.40;;
46230;SDS011;31949;51.404;-0.038;2024-01-30T12:46:27;0.50;;;0.22;;
46230;SDS011;31949;51.404;-0.038;2024-01-30T12:48:56;0.73;;;0.52;;
46230;SDS011;31949;51.404;-0.038;2024-01-30T12:51:24;1.27;;;0.40;;
46230;SDS011;31949;51.404;-0.038;2024-01-30T12:53:51;0.50;;;0.40;;
46230;SDS011;31949;51.404;-0.038;2024-01-30T12:56:18;0.52;;;0.52;;
46230;SDS011;31949;51.404;-0.038;2024-01-30T12:58:45;2.10;;;0.63;;
46230;SDS011;31949;51.404;-0.038;2024-01-30T13:01:17;0.20;;;0.17;;
46230;SDS011;31949;51.404;-0.038;2024-01-30T13:03:44;0.68;;;0.50;;
46230;SDS011;31949;51.404;-0.038;2024-01-30T13:06:13;3.17;;;2.15;;
46230;SDS011;31949;51.404;-0.038;2024-01-30T13:08:41;1.30;;;0.95;;
46230;SDS011;31949;51.404;-0.038;2024-01-30T13:11:08;1.38;;;0.73;;
46230;SDS011;31949;51.404;-0.038;2024-01-30T13:13:46;1.88;;;1.17;;
46230;SDS011;31949;51.404;-0.038;2024-01-30T13:16:13;0.50;;;0.50;;
46230;SDS011;31949;51.404;-0.038;2024-01-30T13:18:41;1.13;;;0.47;;
46230;SDS011;31949;51.404;-0.038;2024-01-30T13:21:10;0.60;;;0.57;;
46230;SDS011;31949;51.404;-0.038;2024-01-30T13:23:37;0.60;;;0.40;;
46230;SDS011;31949;51.404;-0.038;2024-01-30T13:26:04;1.23;;;0.65;;
46230;SDS011;31949;51.404;-0.038;2024-01-30T13:28:33;0.77;;;0.65;;
46230;SDS011;31949;51.404;-0.038;2024-01-30T13:31:00;1.67;;;0.88;;
46230;SDS011;31949;51.404;-0.038;2024-01-30T13:33:27;0.65;;;0.50;;
46230;SDS011;31949;51.404;-0.038;2024-01-30T13:35:55;1.35;;;0.38;;
46230;SDS011;31949;51.404;-0.038;2024-01-30T13:38:22;2.40;;;0.40;;
46230;SDS011;31949;51.404;-0.038;2024-01-30T13:40:49;1.25;;;0.50;;
46230;SDS011;31949;51.404;-0.038;2024-01-30T13:43:17;0.88;;;0.50;;
46230;SDS011;31949;51.404;-0.038;2024-01-30T13:45:44;1.50;;;0.70;;
46230;SDS011;31949;51.404;-0.038;2024-01-30T13:48:12;0.63;;;0.52;;
46230;SDS011;31949;51.404;-0.038;2024-01-30T13:50:40;1.02;;;0.40;;
46230;SDS011;31949;51.404;-0.038;2024-01-30T13:53:07;1.80;;;0.30;;
46230;SDS011;31949;51.404;-0.038;2024-01-30T13:55:34;0.80;;;0.35;;
46230;SDS011;31949;51.404;-0.038;2024-01-30T13:58:02;2.25;;;0.50;;
46230;SDS011;31949;51.404;-0.038;2024-01-30T14:00:29;1.33;;;0.50;;
46230;SDS011;31949;51.404;-0.038;2024-01-30T14:02:56;1.58;;;0.40;;
46230;SDS011;31949;51.404;-0.038;2024-01-30T14:05:26;0.30;;;0.30;;
46230;SDS011;31949;51.404;-0.038;2024-01-30T14:07:54;0.43;;;0.32;;
46230;SDS011;31949;51.404;-0.038;2024-01-30T14:10:22;1.63;;;0.40;;
46230;SDS011;31949;51.404;-0.038;2024-01-30T14:12:50;0.35;;;0.30;;
46230;SDS011;31949;51.404;-0.038;2024-01-30T14:15:17;2.90;;;0.50;;
46230;SDS011;31949;51.404;-0.038;2024-01-30T14:17:54;0.35;;;0.35;;
46230;SDS011;31949;51.404;-0.038;2024-01-30T14:20:23;1.52;;;0.50;;
46230;SDS011;31949;51.404;-0.038;2024-01-30T14:22:50;0.65;;;0.40;;
46230;SDS011;31949;51.404;-0.038;2024-01-30T14:25:19;0.88;;;0.25;;
46230;SDS011;31949;51.404;-0.038;2024-01-30T14:27:47;0.75;;;0.30;;
46230;SDS011;31949;51.404;-0.038;2024-01-30T14:30:14;0.57;;;0.30;;
46230;SDS011;31949;51.404;-0.038;2024-01-30T14:32:41;0.30;;;0.30;;
46230;SDS011;31949;51.404;-0.038;2024-01-30T14:35:11;0.60;;;0.43;;
46230;SDS011;31949;51.404;-0.038;2024-01-30T14:37:39;1.13;;;0.38;;